createdAt,value
2018-11-21T00:01:43.577Z,35.43
2018-11-21T00:04:12.456Z,40.70
2018-11-21T00:06:41.452Z,37.83
2018-11-21T00:09:10.670Z,34.70
2018-11-21T00:11:39.607Z,37.53
2018-11-21T00:14:09.062Z,39.60
2018-11-21T00:16:38.136Z,37.77
2018-11-21T00:19:07.219Z,36.13
2018-11-21T00:21:36.237Z,35.67
2018-11-21T00:24:05.403Z,34.63
2018-11-21T00:26:34.054Z,35.40
2018-11-21T00:29:03.137Z,36.00
2018-11-21T00:31:32.079Z,35.07
2018-11-21T00:34:00.726Z,35.63
2018-11-21T00:36:29.857Z,36.10
2018-11-21T00:38:58.573Z,38.10
2018-11-21T00:41:30.465Z,35.20
2018-11-21T00:43:59.141Z,35.70
2018-11-21T00:46:28.084Z,36.10
2018-11-21T00:48:56.986Z,35.43
2018-11-21T00:51:26.241Z,37.23
2018-11-21T00:53:55.066Z,39.93
2018-11-21T00:56:24.017Z,37.47
2018-11-21T00:58:53.131Z,40.90
2018-11-21T01:01:21.953Z,37.90
2018-11-21T01:03:50.888Z,38.57
2018-11-21T01:06:19.611Z,35.70
2018-11-21T01:08:48.876Z,36.47
2018-11-21T01:11:17.733Z,35.87
2018-11-21T01:13:46.939Z,35.73
2018-11-21T01:16:15.981Z,37.83
2018-11-21T01:18:44.630Z,37.67
2018-11-21T01:21:13.819Z,37.70
2018-11-21T01:23:42.945Z,37.20
2018-11-21T01:26:11.706Z,40.97
2018-11-21T01:28:40.896Z,41.73
2018-11-21T01:31:09.632Z,40.60
2018-11-21T01:33:38.377Z,38.20
2018-11-21T01:36:07.783Z,37.67
2018-11-21T01:38:36.695Z,38.97
2018-11-21T01:41:05.362Z,40.27
2018-11-21T01:43:34.133Z,39.60
2018-11-21T01:46:03.303Z,39.63
2018-11-21T01:48:32.151Z,38.87
2018-11-21T01:51:00.937Z,38.30
2018-11-21T01:53:30.161Z,37.70
2018-11-21T01:55:59.257Z,38.07
2018-11-21T01:58:28.283Z,36.90
2018-11-21T02:00:57.407Z,34.83
2018-11-21T02:03:26.216Z,37.63
2018-11-21T02:05:55.278Z,37.60
2018-11-21T02:08:24.188Z,35.40
2018-11-21T02:10:53.163Z,38.50
2018-11-21T02:13:22.027Z,37.47
2018-11-21T02:15:51.188Z,38.63
2018-11-21T02:18:20.021Z,39.50
2018-11-21T02:20:48.910Z,38.37
2018-11-21T02:23:17.912Z,36.63
2018-11-21T02:25:46.615Z,41.43
2018-11-21T02:28:15.442Z,39.33
2018-11-21T02:30:44.209Z,38.70
2018-11-21T02:33:13.028Z,38.53
2018-11-21T02:35:41.844Z,38.30
2018-11-21T02:38:10.941Z,41.60
2018-11-21T02:40:39.721Z,38.50
2018-11-21T02:43:08.879Z,63.40
2018-11-21T02:45:37.636Z,47.67
2018-11-21T02:48:06.583Z,43.07
2018-11-21T02:50:35.489Z,43.83
2018-11-21T02:53:04.310Z,42.17
2018-11-21T02:55:33.437Z,43.83
2018-11-21T02:58:02.348Z,42.03
2018-11-21T03:00:31.288Z,51.23
2018-11-21T03:03:00.229Z,45.63
2018-11-21T03:05:29.035Z,40.23
2018-11-21T03:07:59.612Z,42.77
2018-11-21T03:10:28.713Z,43.67
2018-11-21T03:12:57.877Z,43.13
2018-11-21T03:15:26.969Z,42.20
2018-11-21T03:17:55.908Z,41.30
2018-11-21T03:20:24.701Z,41.43
2018-11-21T03:22:53.773Z,41.60
2018-11-21T03:25:22.815Z,41.50
2018-11-21T03:27:51.588Z,41.50
2018-11-21T03:30:20.722Z,42.13
2018-11-21T03:32:49.662Z,41.90
2018-11-21T03:35:18.538Z,41.60
2018-11-21T03:37:47.589Z,40.40
2018-11-21T03:40:16.412Z,44.30
2018-11-21T03:42:45.320Z,40.87
2018-11-21T03:45:14.165Z,41.27
2018-11-21T03:47:42.812Z,39.30
2018-11-21T03:50:12.529Z,41.53
2018-11-21T03:52:41.467Z,41.57
2018-11-21T03:55:10.780Z,46.83
2018-11-21T03:57:39.760Z,45.47
2018-11-21T04:00:10.839Z,43.07
2018-11-21T04:02:39.638Z,45.07
2018-11-21T04:05:09.236Z,42.90
2018-11-21T04:07:38.285Z,46.40
2018-11-21T04:10:12.542Z,40.40
2018-11-21T04:12:41.520Z,41.93
2018-11-21T04:15:12.523Z,42.77
2018-11-21T04:17:41.476Z,40.93
2018-11-21T04:20:10.700Z,40.50
2018-11-21T04:22:39.791Z,40.60
2018-11-21T04:25:10.093Z,38.90
2018-11-21T04:27:39.070Z,38.87
2018-11-21T04:30:10.866Z,38.87
2018-11-21T04:32:39.694Z,40.80
2018-11-21T04:35:09.080Z,38.33
2018-11-21T04:37:38.067Z,39.40
2018-11-21T04:40:07.727Z,40.10
2018-11-21T04:42:36.625Z,43.70
2018-11-21T04:45:06.939Z,40.20
2018-11-21T04:47:36.031Z,37.33
2018-11-21T04:50:05.639Z,39.63
2018-11-21T04:52:34.850Z,39.13
2018-11-21T04:55:03.512Z,38.87
2018-11-21T04:57:32.613Z,39.53
2018-11-21T05:00:01.655Z,39.87
2018-11-21T05:02:30.481Z,38.70
2018-11-21T05:04:59.484Z,45.27
2018-11-21T05:07:28.377Z,42.67
2018-11-21T05:09:57.417Z,44.23
2018-11-21T05:12:26.141Z,43.67
2018-11-21T05:14:55.108Z,42.93
2018-11-21T05:17:26.700Z,43.60
2018-11-21T05:19:55.544Z,43.63
2018-11-21T05:22:24.513Z,44.80
2018-11-21T05:24:53.146Z,42.30
2018-11-21T05:27:21.960Z,42.50
2018-11-21T05:29:51.138Z,44.23
2018-11-21T05:32:20.141Z,43.63
2018-11-21T05:34:49.015Z,47.67
2018-11-21T05:37:18.278Z,45.27
2018-11-21T05:39:47.036Z,70.43
2018-11-21T05:42:15.960Z,56.77
2018-11-21T05:44:45.011Z,47.27
2018-11-21T05:47:13.842Z,45.83
2018-11-21T05:49:42.651Z,46.27
2018-11-21T05:52:11.799Z,46.47
2018-11-21T05:54:40.739Z,42.07
2018-11-21T05:57:12.003Z,44.80
2018-11-21T05:59:42.464Z,44.87
2018-11-21T06:02:11.442Z,41.67
2018-11-21T06:04:40.435Z,41.53
2018-11-21T06:07:09.425Z,43.73
2018-11-21T06:09:38.321Z,40.73
2018-11-21T06:12:07.094Z,38.53
2018-11-21T06:14:36.000Z,41.80
2018-11-21T06:17:05.164Z,38.57
2018-11-21T06:19:34.561Z,36.57
2018-11-21T06:22:03.572Z,36.73
2018-11-21T06:24:32.547Z,44.13
2018-11-21T06:27:02.528Z,58.28
2018-11-21T06:29:31.524Z,41.47
2018-11-21T06:32:00.734Z,37.13
2018-11-21T06:34:32.885Z,36.07
2018-11-21T06:36:59.103Z,35.30
2018-11-21T06:39:28.030Z,37.87
2018-11-21T06:41:57.121Z,39.33
2018-11-21T06:44:26.008Z,37.97
2018-11-21T06:46:54.817Z,37.03
2018-11-21T06:49:23.623Z,36.37
2018-11-21T06:51:52.717Z,39.63
2018-11-21T06:54:21.353Z,37.77
2018-11-21T06:56:50.232Z,37.90
2018-11-21T06:59:19.367Z,37.37
2018-11-21T07:01:48.325Z,42.03
2018-11-21T07:04:17.081Z,38.33
2018-11-21T07:06:45.931Z,44.17
2018-11-21T07:09:14.955Z,39.73
2018-11-21T07:11:43.998Z,39.73
2018-11-21T07:14:13.063Z,40.53
2018-11-21T07:16:42.342Z,41.17
2018-11-21T07:19:11.417Z,44.90
2018-11-21T07:21:40.347Z,39.67
2018-11-21T07:24:09.205Z,40.80
2018-11-21T07:26:38.082Z,42.03
2018-11-21T07:29:07.308Z,44.60
2018-11-21T07:31:36.175Z,45.23
2018-11-21T07:34:05.800Z,44.90
2018-11-21T07:36:35.083Z,38.53
2018-11-21T07:39:05.152Z,37.00
2018-11-21T07:41:34.020Z,40.33
2018-11-21T07:44:03.086Z,42.70
2018-11-21T07:46:32.146Z,36.50
2018-11-21T07:49:01.003Z,35.60
2018-11-21T07:51:29.847Z,34.60
2018-11-21T07:53:58.732Z,32.03
2018-11-21T07:57:12.357Z,36.23
2018-11-21T08:00:20.053Z,36.33
2018-11-21T08:02:49.119Z,34.70
2018-11-21T08:05:28.695Z,36.73
2018-11-21T08:08:22.296Z,33.87
2018-11-21T08:11:28.405Z,34.20
2018-11-21T08:14:14.818Z,34.83
2018-11-21T08:17:02.641Z,35.83
2018-11-21T08:19:53.565Z,38.37
2018-11-21T08:22:50.597Z,34.13
2018-11-21T08:25:41.120Z,35.77
2018-11-21T08:28:20.105Z,38.40
2018-11-21T08:30:51.523Z,37.97
2018-11-21T08:33:20.530Z,31.63
2018-11-21T08:35:49.547Z,36.33
2018-11-21T08:38:18.453Z,38.97
2018-11-21T08:40:47.490Z,48.20
2018-11-21T08:43:16.420Z,43.50
2018-11-21T08:45:45.400Z,44.00
2018-11-21T08:48:15.039Z,37.27
2018-11-21T08:50:43.997Z,37.93
2018-11-21T08:53:12.842Z,32.97
2018-11-21T08:55:41.497Z,33.30
2018-11-21T08:58:10.376Z,30.97
2018-11-21T09:00:39.532Z,30.47
2018-11-21T09:03:08.478Z,38.60
2018-11-21T09:05:37.214Z,33.10
2018-11-21T09:08:07.534Z,28.70
2018-11-21T09:13:04.652Z,27.40
2018-11-21T09:15:33.392Z,27.27
2018-11-21T09:18:02.252Z,32.33
2018-11-21T09:20:31.200Z,35.53
2018-11-21T09:22:59.970Z,34.63
2018-11-21T09:25:28.879Z,34.53
2018-11-21T09:27:57.691Z,35.47
2018-11-21T09:30:26.604Z,29.97
2018-11-21T09:32:56.579Z,29.20
2018-11-21T09:35:25.247Z,29.37
2018-11-21T09:37:54.191Z,29.30
2018-11-21T09:40:23.869Z,28.33
2018-11-21T09:42:54.393Z,27.33
2018-11-21T09:45:23.844Z,27.73
2018-11-21T09:47:52.692Z,26.40
2018-11-21T09:50:23.544Z,29.33
2018-11-21T09:52:52.073Z,43.13
2018-11-21T09:55:21.206Z,32.17
2018-11-21T09:57:50.313Z,25.60
2018-11-21T10:00:55.688Z,27.27
2018-11-21T10:03:26.982Z,31.60
2018-11-21T10:06:07.475Z,31.17
2018-11-21T10:08:55.729Z,32.80
2018-11-21T10:11:25.017Z,36.93
2018-11-21T10:13:53.655Z,30.40
2018-11-21T10:16:22.536Z,26.47
2018-11-21T10:18:53.126Z,27.97
2018-11-21T10:21:23.665Z,27.87
2018-11-21T10:23:52.468Z,25.53
2018-11-21T10:26:21.247Z,24.77
2018-11-21T10:28:50.774Z,25.93
2018-11-21T10:31:19.681Z,23.47
2018-11-21T10:33:49.042Z,24.80
2018-11-21T10:36:18.182Z,26.17
2018-11-21T10:38:47.134Z,24.97
2018-11-21T10:41:16.092Z,25.00
2018-11-21T10:43:44.950Z,28.50
2018-11-21T10:46:14.648Z,27.37
2018-11-21T10:48:43.652Z,26.77
2018-11-21T10:51:14.433Z,27.57
2018-11-21T10:53:41.219Z,34.73
2018-11-21T10:56:10.160Z,33.00
2018-11-21T10:58:39.497Z,29.37
2018-11-21T11:01:14.687Z,32.70
2018-11-21T11:04:17.847Z,32.93
2018-11-21T11:07:08.919Z,43.70
2018-11-21T11:10:05.961Z,34.17
2018-11-21T11:12:56.653Z,31.57
2018-11-21T11:15:39.494Z,28.70
2018-11-21T11:18:30.071Z,27.17
2018-11-21T11:21:11.715Z,35.43
2018-11-21T11:23:57.973Z,30.37
2018-11-21T11:26:44.583Z,30.53
2018-11-21T11:29:32.413Z,24.07
2018-11-21T11:32:23.266Z,23.53
2018-11-21T11:35:13.845Z,34.77
2018-11-21T11:37:59.374Z,29.37
2018-11-21T11:40:53.389Z,39.70
2018-11-21T11:43:46.737Z,39.87
2018-11-21T11:46:33.662Z,42.67
2018-11-21T11:49:27.483Z,24.60
2018-11-21T11:52:14.277Z,31.83
2018-11-21T11:55:04.609Z,32.03
2018-11-21T11:57:52.014Z,66.03
2018-11-21T12:00:48.707Z,34.47
2018-11-21T12:03:35.274Z,39.17
2018-11-21T12:06:29.199Z,31.67
2018-11-21T12:09:26.027Z,29.17
2018-11-21T12:12:25.905Z,39.97
2018-11-21T12:15:29.357Z,37.07
2018-11-21T12:18:13.680Z,25.77
2018-11-21T12:21:04.717Z,34.17
2018-11-21T12:23:51.230Z,31.00
2018-11-21T12:26:37.372Z,41.10
2018-11-21T12:29:27.996Z,36.83
2018-11-21T12:32:24.769Z,28.33
2018-11-21T12:35:21.134Z,39.10
2018-11-21T12:38:19.714Z,27.77
2018-11-21T12:41:01.111Z,27.00
2018-11-21T12:44:03.960Z,26.07
2018-11-21T12:46:52.008Z,29.27
2018-11-21T12:49:45.431Z,37.03
2018-11-21T12:52:33.708Z,32.70
2018-11-21T12:55:36.481Z,28.70
2018-11-21T12:58:24.692Z,30.50
2018-11-21T13:01:12.857Z,30.67
2018-11-21T13:04:00.093Z,35.50
2018-11-21T13:06:46.357Z,24.80
2018-11-21T13:09:42.814Z,24.20
2018-11-21T13:12:40.160Z,26.03
2018-11-21T13:15:31.907Z,23.20
2018-11-21T13:18:32.013Z,22.67
2018-11-21T13:21:18.759Z,24.27
2018-11-21T13:24:05.600Z,28.03
2018-11-21T13:26:52.464Z,27.87
2018-11-21T13:29:32.207Z,24.20
2018-11-21T13:32:26.153Z,28.23
2018-11-21T13:35:12.515Z,23.70
2018-11-21T13:37:56.355Z,33.53
2018-11-21T13:40:43.145Z,71.23
2018-11-21T13:43:33.960Z,40.50
2018-11-21T13:46:11.214Z,37.67
2018-11-21T13:48:58.295Z,119.27
2018-11-21T13:51:45.159Z,53.87
2018-11-21T13:54:39.140Z,48.30
2018-11-21T13:57:09.097Z,59.17
2018-11-21T13:59:37.815Z,41.10
2018-11-21T14:02:09.567Z,64.23
2018-11-21T14:04:38.646Z,40.27
2018-11-21T14:07:08.412Z,32.47
2018-11-21T14:09:37.287Z,33.97
2018-11-21T14:12:06.560Z,38.70
2018-11-21T14:14:35.411Z,52.40
2018-11-21T14:17:04.203Z,35.50
2018-11-21T14:19:32.914Z,53.47
2018-11-21T14:22:01.891Z,52.63
2018-11-21T14:24:31.057Z,71.17
2018-11-21T14:26:59.994Z,59.73
2018-11-21T14:29:29.120Z,90.17
2018-11-21T14:31:58.134Z,86.57
2018-11-21T14:34:26.878Z,120.77
2018-11-21T14:36:55.719Z,61.67
2018-11-21T14:39:24.789Z,90.00
2018-11-21T14:41:53.558Z,81.13
2018-11-21T14:44:22.647Z,42.00
2018-11-21T14:46:52.822Z,56.43
2018-11-21T14:49:21.658Z,143.13
2018-11-21T14:51:50.573Z,54.07
2018-11-21T14:54:19.798Z,56.50
2018-11-21T14:56:48.689Z,79.57
2018-11-21T14:59:17.710Z,45.37
2018-11-21T15:01:46.878Z,42.67
2018-11-21T15:04:16.279Z,46.57
2018-11-21T15:06:45.100Z,48.40
2018-11-21T15:09:14.670Z,38.97
2018-11-21T15:11:43.823Z,37.77
2018-11-21T15:14:12.787Z,38.80
2018-11-21T15:16:41.735Z,31.00
2018-11-21T15:19:10.969Z,43.00
2018-11-21T15:21:39.976Z,96.60
2018-11-21T15:24:08.965Z,35.47
2018-11-21T15:26:37.739Z,59.97
2018-11-21T15:29:06.645Z,69.50
2018-11-21T15:31:35.566Z,59.40
2018-11-21T15:34:05.068Z,50.83
2018-11-21T15:36:33.971Z,145.77
2018-11-21T15:39:03.313Z,110.60
2018-11-21T15:41:32.104Z,93.10
2018-11-21T15:44:01.053Z,104.97
2018-11-21T15:46:30.405Z,78.37
2018-11-21T15:48:59.175Z,53.60
2018-11-21T15:51:27.985Z,52.53
2018-11-21T15:53:56.693Z,66.57
2018-11-21T15:56:25.431Z,61.47
2018-11-21T15:58:54.634Z,46.83
2018-11-21T16:01:23.652Z,48.37
2018-11-21T16:03:52.603Z,40.03
2018-11-21T16:06:21.678Z,36.80
2018-11-21T16:08:51.384Z,82.60
2018-11-21T16:11:20.506Z,48.30
2018-11-21T16:13:50.500Z,49.77
2018-11-21T16:16:19.589Z,47.43
2018-11-21T16:18:48.329Z,31.70
2018-11-21T16:21:17.225Z,38.40
2018-11-21T16:23:46.161Z,40.43
2018-11-21T16:26:15.171Z,39.97
2018-11-21T16:28:44.085Z,39.07
2018-11-21T16:31:12.822Z,37.60
2018-11-21T16:33:41.658Z,37.27
2018-11-21T16:36:10.427Z,39.87
2018-11-21T16:38:39.471Z,45.40
2018-11-21T16:41:08.533Z,47.90
2018-11-21T16:43:37.571Z,39.30
2018-11-21T16:46:06.850Z,39.23
2018-11-21T16:48:35.720Z,40.30
2018-11-21T16:51:04.611Z,41.30
2018-11-21T16:53:35.257Z,34.97
2018-11-21T16:56:02.274Z,35.47
2018-11-21T16:58:30.943Z,35.70
2018-11-21T17:00:59.769Z,40.03
2018-11-21T17:03:29.285Z,52.03
2018-11-21T17:05:58.110Z,44.93
2018-11-21T17:08:27.171Z,43.23
2018-11-21T17:10:56.379Z,53.77
2018-11-21T17:13:25.275Z,50.10
2018-11-21T17:15:54.189Z,50.57
2018-11-21T17:18:23.138Z,52.60
2018-11-21T17:20:52.155Z,53.90
2018-11-21T17:23:21.123Z,52.30
2018-11-21T17:25:50.070Z,52.77
2018-11-21T17:28:19.127Z,46.13
2018-11-21T17:30:48.095Z,50.60
2018-11-21T17:33:16.940Z,51.17
2018-11-21T17:35:46.051Z,65.33
2018-11-21T17:38:15.325Z,49.63
2018-11-21T17:40:45.164Z,45.47
2018-11-21T17:43:14.179Z,51.67
2018-11-21T17:45:43.583Z,50.70
2018-11-21T17:48:12.778Z,56.97
2018-11-21T17:50:41.683Z,47.83
2018-11-21T17:53:10.837Z,46.10
2018-11-21T17:55:40.372Z,48.37
2018-11-21T17:58:09.417Z,54.00
2018-11-21T18:00:39.089Z,57.53
2018-11-21T18:03:08.101Z,45.37
2018-11-21T18:05:39.333Z,45.40
2018-11-21T18:08:08.648Z,70.43
2018-11-21T18:10:39.270Z,69.93
2018-11-21T18:13:08.310Z,55.60
2018-11-21T18:15:37.382Z,60.23
2018-11-21T18:18:06.476Z,95.40
2018-11-21T18:20:35.271Z,52.23
2018-11-21T18:23:04.109Z,80.77
2018-11-21T18:25:36.598Z,53.07
2018-11-21T18:28:20.293Z,41.47
2018-11-21T18:30:49.471Z,62.17
2018-11-21T18:33:26.788Z,45.13
2018-11-21T18:35:55.721Z,40.80
2018-11-21T18:38:24.675Z,44.40
2018-11-21T18:40:54.151Z,35.73
2018-11-21T18:43:23.050Z,41.57
2018-11-21T18:45:52.639Z,37.20
2018-11-21T18:48:21.622Z,37.13
2018-11-21T18:50:50.522Z,43.50
2018-11-21T18:53:19.381Z,43.33
2018-11-21T18:56:14.701Z,42.13
2018-11-21T18:59:10.594Z,42.33
2018-11-21T19:01:39.593Z,41.43
2018-11-21T19:04:08.939Z,56.87
2018-11-21T19:06:37.917Z,49.93
2018-11-21T19:09:11.260Z,52.03
2018-11-21T19:11:40.588Z,44.00
2018-11-21T19:14:09.994Z,45.93
2018-11-21T19:16:39.067Z,46.43
2018-11-21T19:19:08.354Z,54.90
2018-11-21T19:21:37.310Z,49.10
2018-11-21T19:24:06.466Z,50.00
2018-11-21T19:26:35.745Z,48.10
2018-11-21T19:29:05.109Z,53.87
2018-11-21T19:31:34.016Z,53.13
2018-11-21T19:34:04.575Z,51.07
2018-11-21T19:36:32.694Z,51.47
2018-11-21T19:39:01.904Z,62.13
2018-11-21T19:41:31.418Z,47.27
2018-11-21T19:44:00.382Z,53.73
2018-11-21T19:46:29.604Z,53.67
2018-11-21T19:48:58.500Z,86.87
2018-11-21T19:51:27.329Z,53.33
2018-11-21T19:53:56.357Z,50.87
2018-11-21T19:56:25.367Z,79.97
2018-11-21T19:58:54.526Z,59.13
2018-11-21T20:01:23.851Z,79.27
2018-11-21T20:03:52.938Z,69.70
2018-11-21T20:06:22.020Z,58.67
2018-11-21T20:08:51.329Z,54.47
2018-11-21T20:11:20.264Z,62.77
2018-11-21T20:13:49.196Z,64.50
2018-11-21T20:16:18.368Z,157.90
2018-11-21T20:18:47.503Z,76.33
2018-11-21T20:21:16.421Z,75.20
2018-11-21T20:23:45.519Z,60.00
2018-11-21T20:26:14.480Z,73.63
2018-11-21T20:28:43.256Z,65.13
2018-11-21T20:31:12.064Z,76.93
2018-11-21T20:33:41.133Z,68.17
2018-11-21T20:36:10.121Z,68.27
2018-11-21T20:38:39.309Z,70.03
2018-11-21T20:41:08.373Z,53.97
2018-11-21T20:43:37.403Z,54.30
2018-11-21T20:46:06.935Z,76.10
2018-11-21T20:48:36.192Z,70.47
2018-11-21T20:51:05.417Z,71.37
2018-11-21T20:53:34.752Z,79.10
2018-11-21T20:56:03.785Z,48.67
2018-11-21T20:58:32.801Z,48.40
2018-11-21T21:01:02.007Z,50.00
2018-11-21T21:03:31.026Z,77.00
2018-11-21T21:06:00.193Z,61.83
2018-11-21T21:08:29.010Z,52.97
2018-11-21T21:10:57.796Z,45.70
2018-11-21T21:13:26.956Z,56.83
2018-11-21T21:15:55.990Z,51.70
2018-11-21T21:18:25.136Z,55.90
2018-11-21T21:20:53.938Z,57.17
2018-11-21T21:23:22.973Z,50.83
2018-11-21T21:25:52.020Z,53.30
2018-11-21T21:28:20.952Z,55.37
2018-11-21T21:30:50.266Z,52.53
2018-11-21T21:33:19.398Z,57.47
2018-11-21T21:35:48.202Z,52.23
2018-11-21T21:38:17.182Z,56.43
2018-11-21T21:40:45.901Z,47.33
2018-11-21T21:43:14.874Z,49.47
2018-11-21T21:45:43.774Z,60.33
2018-11-21T21:48:12.905Z,56.43
2018-11-21T21:50:42.421Z,52.73
2018-11-21T21:53:12.933Z,57.70
2018-11-21T21:55:40.634Z,54.17
2018-11-21T21:58:09.675Z,56.33
2018-11-21T22:00:38.599Z,41.50
2018-11-21T22:03:07.594Z,46.10
2018-11-21T22:05:36.864Z,46.33
2018-11-21T22:08:08.886Z,43.03
2018-11-21T22:10:37.645Z,40.10
2018-11-21T22:13:06.544Z,68.87
2018-11-21T22:15:45.238Z,51.37
2018-11-21T22:18:15.328Z,54.27
2018-11-21T22:20:44.650Z,47.63
2018-11-21T22:23:13.647Z,49.03
2018-11-21T22:25:48.498Z,52.57
2018-11-21T22:28:16.362Z,46.37
2018-11-21T22:30:45.406Z,45.90
2018-11-21T22:33:14.442Z,38.87
2018-11-21T22:35:43.270Z,40.27
2018-11-21T22:38:12.159Z,39.97
2018-11-21T22:40:40.895Z,44.33
2018-11-21T22:43:09.971Z,40.57
2018-11-21T22:45:38.836Z,38.80
2018-11-21T22:48:07.682Z,55.80
2018-11-21T22:50:36.611Z,40.83
